sensor_id;sensor_type;location;lat;lon;timestamp;P1;durP1;ratioP1;P2;durP2;ratioP2
64212;SDS011;50532;52.058;4.472;2024-01-30T00:01:39;4.38;;;2.40;;
64212;SDS011;50532;52.058;4.472;2024-01-30T00:04:04;3.65;;;2.20;;
64212;SDS011;50532;52.058;4.472;2024-01-30T00:06:29;4.50;;;2.50;;
64212;SDS011;50532;52.058;4.472;2024-01-30T00:08:56;4.13;;;2.45;;
64212;SDS011;50532;52.058;4.472;2024-01-30T00:11:21;4.20;;;2.30;;
64212;SDS011;50532;52.058;4.472;2024-01-30T00:13:47;4.40;;;2.42;;
64212;SDS011;50532;52.058;4.472;2024-01-30T00:16:21;3.08;;;2.20;;
64212;SDS011;50532;52.058;4.472;2024-01-30T00:18:49;6.13;;;2.58;;
64212;SDS011;50532;52.058;4.472;2024-01-30T00:21:14;6.38;;;2.78;;
64212;SDS011;50532;52.058;4.472;2024-01-30T00:23:39;5.50;;;2.38;;
64212;SDS011;50532;52.058;4.472;2024-01-30T00:26:06;4.47;;;2.20;;
64212;SDS011;50532;52.058;4.472;2024-01-30T00:28:31;4.38;;;2.35;;
64212;SDS011;50532;52.058;4.472;2024-01-30T00:30:56;2.85;;;2.22;;
64212;SDS011;50532;52.058;4.472;2024-01-30T00:33:22;4.32;;;2.33;;
64212;SDS011;50532;52.058;4.472;2024-01-30T00:35:47;3.47;;;2.17;;
64212;SDS011;50532;52.058;4.472;2024-01-30T00:38:13;6.03;;;2.42;;
64212;SDS011;50532;52.058;4.472;2024-01-30T00:40:38;2.90;;;2.25;;
64212;SDS011;50532;52.058;4.472;2024-01-30T00:43:03;3.08;;;2.17;;
64212;SDS011;50532;52.058;4.472;2024-01-30T00:45:29;4.75;;;2.60;;
64212;SDS011;50532;52.058;4.472;2024-01-30T00:47:54;3.85;;;2.55;;
64212;SDS011;50532;52.058;4.472;2024-01-30T00:50:19;2.55;;;2.05;;
64212;SDS011;50532;52.058;4.472;2024-01-30T00:52:45;3.42;;;2.15;;
64212;SDS011;50532;52.058;4.472;2024-01-30T00:55:11;1.92;;;1.73;;
64212;SDS011;50532;52.058;4.472;2024-01-30T00:57:36;3.40;;;2.20;;
64212;SDS011;50532;52.058;4.472;2024-01-30T01:00:02;5.05;;;2.25;;
64212;SDS011;50532;52.058;4.472;2024-01-30T01:02:28;3.20;;;1.95;;
64212;SDS011;50532;52.058;4.472;2024-01-30T01:04:53;3.90;;;2.05;;
64212;SDS011;50532;52.058;4.472;2024-01-30T01:07:19;4.57;;;2.60;;
64212;SDS011;50532;52.058;4.472;2024-01-30T01:09:44;2.85;;;2.20;;
64212;SDS011;50532;52.058;4.472;2024-01-30T01:12:09;4.05;;;2.42;;
64212;SDS011;50532;52.058;4.472;2024-01-30T01:14:35;3.35;;;2.40;;
64212;SDS011;50532;52.058;4.472;2024-01-30T01:17:01;5.13;;;2.13;;
64212;SDS011;50532;52.058;4.472;2024-01-30T01:19:26;5.55;;;2.10;;
64212;SDS011;50532;52.058;4.472;2024-01-30T01:21:52;2.42;;;2.22;;
64212;SDS011;50532;52.058;4.472;2024-01-30T01:24:18;4.10;;;2.45;;
64212;SDS011;50532;52.058;4.472;2024-01-30T01:26:43;3.95;;;2.00;;
64212;SDS011;50532;52.058;4.472;2024-01-30T01:29:09;3.33;;;2.17;;
64212;SDS011;50532;52.058;4.472;2024-01-30T01:31:38;3.40;;;2.28;;
64212;SDS011;50532;52.058;4.472;2024-01-30T01:34:11;3.20;;;2.22;;
64212;SDS011;50532;52.058;4.472;2024-01-30T01:36:36;2.80;;;2.08;;
64212;SDS011;50532;52.058;4.472;2024-01-30T01:39:02;4.97;;;2.25;;
64212;SDS011;50532;52.058;4.472;2024-01-30T01:41:31;3.13;;;2.05;;
64212;SDS011;50532;52.058;4.472;2024-01-30T01:43:57;2.92;;;1.90;;
64212;SDS011;50532;52.058;4.472;2024-01-30T01:46:22;2.78;;;1.92;;
64212;SDS011;50532;52.058;4.472;2024-01-30T01:48:48;3.13;;;2.22;;
64212;SDS011;50532;52.058;4.472;2024-01-30T01:51:14;2.85;;;2.42;;
64212;SDS011;50532;52.058;4.472;2024-01-30T01:53:39;3.10;;;2.05;;
64212;SDS011;50532;52.058;4.472;2024-01-30T01:56:05;2.17;;;1.90;;
64212;SDS011;50532;52.058;4.472;2024-01-30T01:58:31;2.80;;;1.85;;
64212;SDS011;50532;52.058;4.472;2024-01-30T02:00:56;4.28;;;2.25;;
64212;SDS011;50532;52.058;4.472;2024-01-30T02:03:23;2.58;;;2.10;;
64212;SDS011;50532;52.058;4.472;2024-01-30T02:05:49;2.05;;;1.73;;
64212;SDS011;50532;52.058;4.472;2024-01-30T02:08:15;3.13;;;2.08;;
64212;SDS011;50532;52.058;4.472;2024-01-30T02:10:41;4.90;;;2.03;;
64212;SDS011;50532;52.058;4.472;2024-01-30T02:13:06;2.97;;;2.10;;
64212;SDS011;50532;52.058;4.472;2024-01-30T02:15:32;3.55;;;2.10;;
64212;SDS011;50532;52.058;4.472;2024-01-30T02:17:57;2.33;;;1.90;;
64212;SDS011;50532;52.058;4.472;2024-01-30T02:20:23;3.35;;;2.10;;
64212;SDS011;50532;52.058;4.472;2024-01-30T02:22:49;4.18;;;2.22;;
64212;SDS011;50532;52.058;4.472;2024-01-30T02:25:17;5.53;;;2.30;;
64212;SDS011;50532;52.058;4.472;2024-01-30T02:27:43;3.08;;;2.38;;
64212;SDS011;50532;52.058;4.472;2024-01-30T02:30:08;2.70;;;1.98;;
64212;SDS011;50532;52.058;4.472;2024-01-30T02:32:34;3.15;;;1.90;;
64212;SDS011;50532;52.058;4.472;2024-01-30T02:34:59;2.53;;;2.00;;
64212;SDS011;50532;52.058;4.472;2024-01-30T02:37:25;5.82;;;2.10;;
64212;SDS011;50532;52.058;4.472;2024-01-30T02:39:50;4.30;;;2.25;;
64212;SDS011;50532;52.058;4.472;2024-01-30T02:42:15;2.88;;;2.20;;
64212;SDS011;50532;52.058;4.472;2024-01-30T02:44:41;2.28;;;1.83;;
64212;SDS011;50532;52.058;4.472;2024-01-30T02:47:06;4.07;;;2.30;;
64212;SDS011;50532;52.058;4.472;2024-01-30T02:49:31;2.78;;;2.00;;
64212;SDS011;50532;52.058;4.472;2024-01-30T02:51:57;5.30;;;2.25;;
64212;SDS011;50532;52.058;4.472;2024-01-30T02:54:22;2.35;;;1.98;;
64212;SDS011;50532;52.058;4.472;2024-01-30T02:56:47;4.90;;;2.60;;
64212;SDS011;50532;52.058;4.472;2024-01-30T02:59:13;3.08;;;2.15;;
64212;SDS011;50532;52.058;4.472;2024-01-30T03:01:44;3.65;;;1.90;;
64212;SDS011;50532;52.058;4.472;2024-01-30T03:04:10;3.05;;;1.98;;
64212;SDS011;50532;52.058;4.472;2024-01-30T03:06:36;4.38;;;2.15;;
64212;SDS011;50532;52.058;4.472;2024-01-30T03:09:01;4.28;;;2.13;;
64212;SDS011;50532;52.058;4.472;2024-01-30T03:11:28;3.25;;;1.83;;
64212;SDS011;50532;52.058;4.472;2024-01-30T03:13:53;2.85;;;1.83;;
64212;SDS011;50532;52.058;4.472;2024-01-30T03:16:18;2.65;;;2.00;;
64212;SDS011;50532;52.058;4.472;2024-01-30T03:18:44;4.20;;;2.20;;
64212;SDS011;50532;52.058;4.472;2024-01-30T03:21:09;2.58;;;1.75;;
64212;SDS011;50532;52.058;4.472;2024-01-30T03:23:34;2.50;;;1.90;;
64212;SDS011;50532;52.058;4.472;2024-01-30T03:26:00;3.25;;;2.05;;
64212;SDS011;50532;52.058;4.472;2024-01-30T03:28:25;4.72;;;2.03;;
64212;SDS011;50532;52.058;4.472;2024-01-30T03:30:51;4.93;;;2.08;;
64212;SDS011;50532;52.058;4.472;2024-01-30T03:33:16;2.30;;;1.67;;
64212;SDS011;50532;52.058;4.472;2024-01-30T03:35:42;3.30;;;2.03;;
64212;SDS011;50532;52.058;4.472;2024-01-30T03:38:07;2.55;;;1.70;;
64212;SDS011;50532;52.058;4.472;2024-01-30T03:40:33;2.65;;;1.83;;
64212;SDS011;50532;52.058;4.472;2024-01-30T03:42:58;2.33;;;1.60;;
64212;SDS011;50532;52.058;4.472;2024-01-30T03:45:24;4.35;;;2.08;;
64212;SDS011;50532;52.058;4.472;2024-01-30T03:47:49;4.07;;;2.00;;
64212;SDS011;50532;52.058;4.472;2024-01-30T03:50:14;3.83;;;1.75;;
64212;SDS011;50532;52.058;4.472;2024-01-30T03:52:40;2.50;;;1.85;;
64212;SDS011;50532;52.058;4.472;2024-01-30T03:55:05;3.15;;;1.90;;
64212;SDS011;50532;52.058;4.472;2024-01-30T03:57:31;2.50;;;1.70;;
64212;SDS011;50532;52.058;4.472;2024-01-30T03:59:56;3.63;;;1.95;;
64212;SDS011;50532;52.058;4.472;2024-01-30T04:02:21;2.95;;;2.03;;
64212;SDS011;50532;52.058;4.472;2024-01-30T04:04:47;3.75;;;1.90;;
64212;SDS011;50532;52.058;4.472;2024-01-30T04:07:12;3.20;;;2.30;;
64212;SDS011;50532;52.058;4.472;2024-01-30T04:09:38;2.20;;;1.80;;
64212;SDS011;50532;52.058;4.472;2024-01-30T04:12:03;2.78;;;1.80;;
64212;SDS011;50532;52.058;4.472;2024-01-30T04:14:29;4.82;;;2.08;;
64212;SDS011;50532;52.058;4.472;2024-01-30T04:16:54;3.35;;;2.10;;
64212;SDS011;50532;52.058;4.472;2024-01-30T04:19:20;4.70;;;2.00;;
64212;SDS011;50532;52.058;4.472;2024-01-30T04:21:45;3.83;;;1.90;;
64212;SDS011;50532;52.058;4.472;2024-01-30T04:24:10;2.63;;;2.00;;
64212;SDS011;50532;52.058;4.472;2024-01-30T04:26:36;2.25;;;1.80;;
64212;SDS011;50532;52.058;4.472;2024-01-30T04:29:01;2.40;;;1.85;;
64212;SDS011;50532;52.058;4.472;2024-01-30T04:31:27;2.75;;;1.60;;
64212;SDS011;50532;52.058;4.472;2024-01-30T04:33:53;3.25;;;2.03;;
64212;SDS011;50532;52.058;4.472;2024-01-30T04:36:18;2.80;;;2.03;;
64212;SDS011;50532;52.058;4.472;2024-01-30T04:38:43;6.20;;;1.92;;
64212;SDS011;50532;52.058;4.472;2024-01-30T04:41:09;2.83;;;1.67;;
64212;SDS011;50532;52.058;4.472;2024-01-30T04:43:34;1.52;;;1.40;;
64212;SDS011;50532;52.058;4.472;2024-01-30T04:46:00;3.92;;;2.20;;
64212;SDS011;50532;52.058;4.472;2024-01-30T04:48:25;4.40;;;2.10;;
64212;SDS011;50532;52.058;4.472;2024-01-30T04:50:50;2.15;;;1.80;;
64212;SDS011;50532;52.058;4.472;2024-01-30T04:53:16;3.08;;;2.20;;
64212;SDS011;50532;52.058;4.472;2024-01-30T04:55:41;2.78;;;1.73;;
64212;SDS011;50532;52.058;4.472;2024-01-30T04:58:06;2.60;;;1.75;;
64212;SDS011;50532;52.058;4.472;2024-01-30T05:00:32;2.33;;;1.70;;
64212;SDS011;50532;52.058;4.472;2024-01-30T05:02:57;4.40;;;2.00;;
64212;SDS011;50532;52.058;4.472;2024-01-30T05:05:22;3.05;;;1.90;;
64212;SDS011;50532;52.058;4.472;2024-01-30T05:07:48;2.90;;;1.70;;
64212;SDS011;50532;52.058;4.472;2024-01-30T05:10:14;3.20;;;1.92;;
64212;SDS011;50532;52.058;4.472;2024-01-30T05:12:39;3.50;;;1.92;;
64212;SDS011;50532;52.058;4.472;2024-01-30T05:15:05;5.38;;;2.17;;
64212;SDS011;50532;52.058;4.472;2024-01-30T05:17:31;1.75;;;1.50;;
64212;SDS011;50532;52.058;4.472;2024-01-30T05:19:56;2.35;;;2.10;;
64212;SDS011;50532;52.058;4.472;2024-01-30T05:22:22;4.80;;;2.03;;
64212;SDS011;50532;52.058;4.472;2024-01-30T05:24:47;3.53;;;1.90;;
64212;SDS011;50532;52.058;4.472;2024-01-30T05:27:12;3.90;;;1.70;;
64212;SDS011;50532;52.058;4.472;2024-01-30T05:29:40;2.20;;;1.90;;
64212;SDS011;50532;52.058;4.472;2024-01-30T05:32:06;2.00;;;1.80;;
64212;SDS011;50532;52.058;4.472;2024-01-30T05:34:31;1.85;;;1.55;;
64212;SDS011;50532;52.058;4.472;2024-01-30T05:36:57;3.80;;;1.90;;
64212;SDS011;50532;52.058;4.472;2024-01-30T05:39:22;2.45;;;1.63;;
64212;SDS011;50532;52.058;4.472;2024-01-30T05:41:47;1.98;;;1.50;;
64212;SDS011;50532;52.058;4.472;2024-01-30T05:44:13;1.98;;;1.73;;
64212;SDS011;50532;52.058;4.472;2024-01-30T05:46:38;4.03;;;2.00;;
64212;SDS011;50532;52.058;4.472;2024-01-30T05:49:04;2.25;;;1.50;;
64212;SDS011;50532;52.058;4.472;2024-01-30T05:51:29;2.90;;;1.95;;
64212;SDS011;50532;52.058;4.472;2024-01-30T05:53:55;3.35;;;1.70;;
64212;SDS011;50532;52.058;4.472;2024-01-30T05:56:20;1.88;;;1.52;;
64212;SDS011;50532;52.058;4.472;2024-01-30T05:58:45;1.90;;;1.65;;
64212;SDS011;50532;52.058;4.472;2024-01-30T06:01:11;4.68;;;1.80;;
64212;SDS011;50532;52.058;4.472;2024-01-30T06:03:36;3.00;;;1.80;;
64212;SDS011;50532;52.058;4.472;2024-01-30T06:06:02;1.67;;;1.40;;
64212;SDS011;50532;52.058;4.472;2024-01-30T06:08:27;3.55;;;1.80;;
64212;SDS011;50532;52.058;4.472;2024-01-30T06:10:53;2.92;;;1.77;;
64212;SDS011;50532;52.058;4.472;2024-01-30T06:13:18;3.15;;;1.58;;
64212;SDS011;50532;52.058;4.472;2024-01-30T06:15:43;2.45;;;1.70;;
64212;SDS011;50532;52.058;4.472;2024-01-30T06:18:09;2.03;;;1.83;;
64212;SDS011;50532;52.058;4.472;2024-01-30T06:20:34;1.58;;;1.48;;
64212;SDS011;50532;52.058;4.472;2024-01-30T06:23:00;2.78;;;1.88;;
64212;SDS011;50532;52.058;4.472;2024-01-30T06:25:25;2.22;;;1.88;;
64212;SDS011;50532;52.058;4.472;2024-01-30T06:27:51;2.90;;;1.75;;
64212;SDS011;50532;52.058;4.472;2024-01-30T06:30:16;3.00;;;1.65;;
64212;SDS011;50532;52.058;4.472;2024-01-30T06:32:42;2.35;;;1.55;;
64212;SDS011;50532;52.058;4.472;2024-01-30T06:35:07;2.13;;;1.73;;
64212;SDS011;50532;52.058;4.472;2024-01-30T06:37:33;6.28;;;1.73;;
64212;SDS011;50532;52.058;4.472;2024-01-30T06:39:58;2.00;;;1.73;;
64212;SDS011;50532;52.058;4.472;2024-01-30T06:42:24;3.67;;;2.05;;
64212;SDS011;50532;52.058;4.472;2024-01-30T06:44:49;3.63;;;2.15;;
64212;SDS011;50532;52.058;4.472;2024-01-30T06:47:14;2.22;;;1.85;;
64212;SDS011;50532;52.058;4.472;2024-01-30T06:49:40;2.63;;;1.73;;
64212;SDS011;50532;52.058;4.472;2024-01-30T06:52:07;3.03;;;1.80;;
64212;SDS011;50532;52.058;4.472;2024-01-30T06:54:32;3.22;;;1.75;;
64212;SDS011;50532;52.058;4.472;2024-01-30T06:56:58;2.03;;;1.60;;
64212;SDS011;50532;52.058;4.472;2024-01-30T06:59:24;3.13;;;2.03;;
64212;SDS011;50532;52.058;4.472;2024-01-30T07:01:49;2.65;;;1.73;;
64212;SDS011;50532;52.058;4.472;2024-01-30T07:04:14;1.67;;;1.50;;
64212;SDS011;50532;52.058;4.472;2024-01-30T07:06:41;3.75;;;1.65;;
64212;SDS011;50532;52.058;4.472;2024-01-30T07:09:06;5.00;;;2.03;;
64212;SDS011;50532;52.058;4.472;2024-01-30T07:11:31;2.95;;;1.85;;
64212;SDS011;50532;52.058;4.472;2024-01-30T07:13:57;4.50;;;1.90;;
64212;SDS011;50532;52.058;4.472;2024-01-30T07:16:22;2.58;;;1.70;;
64212;SDS011;50532;52.058;4.472;2024-01-30T07:18:48;2.13;;;1.85;;
64212;SDS011;50532;52.058;4.472;2024-01-30T07:21:14;2.15;;;1.90;;
64212;SDS011;50532;52.058;4.472;2024-01-30T07:23:40;2.05;;;1.83;;
64212;SDS011;50532;52.058;4.472;2024-01-30T07:26:06;4.65;;;1.73;;
64212;SDS011;50532;52.058;4.472;2024-01-30T07:28:33;3.17;;;1.88;;
64212;SDS011;50532;52.058;4.472;2024-01-30T07:30:59;4.03;;;2.33;;
64212;SDS011;50532;52.058;4.472;2024-01-30T07:33:24;3.28;;;1.80;;
64212;SDS011;50532;52.058;4.472;2024-01-30T07:35:49;2.60;;;2.00;;
64212;SDS011;50532;52.058;4.472;2024-01-30T07:38:17;2.95;;;1.85;;
64212;SDS011;50532;52.058;4.472;2024-01-30T07:40:42;4.93;;;1.90;;
64212;SDS011;50532;52.058;4.472;2024-01-30T07:43:07;3.45;;;1.77;;
64212;SDS011;50532;52.058;4.472;2024-01-30T07:45:33;6.32;;;1.95;;
64212;SDS011;50532;52.058;4.472;2024-01-30T07:47:58;4.45;;;1.60;;
64212;SDS011;50532;52.058;4.472;2024-01-30T07:50:27;2.25;;;1.80;;
64212;SDS011;50532;52.058;4.472;2024-01-30T07:52:52;4.30;;;2.00;;
64212;SDS011;50532;52.058;4.472;2024-01-30T07:55:20;2.85;;;1.90;;
64212;SDS011;50532;52.058;4.472;2024-01-30T07:57:49;3.25;;;1.80;;
64212;SDS011;50532;52.058;4.472;2024-01-30T08:00:15;3.60;;;2.10;;
64212;SDS011;50532;52.058;4.472;2024-01-30T08:02:41;3.92;;;1.98;;
64212;SDS011;50532;52.058;4.472;2024-01-30T08:05:06;3.70;;;2.20;;
64212;SDS011;50532;52.058;4.472;2024-01-30T08:07:32;4.40;;;1.88;;
64212;SDS011;50532;52.058;4.472;2024-01-30T08:09:57;15.00;;;3.20;;
64212;SDS011;50532;52.058;4.472;2024-01-30T08:12:22;17.52;;;2.78;;
64212;SDS011;50532;52.058;4.472;2024-01-30T08:14:48;6.10;;;2.22;;
64212;SDS011;50532;52.058;4.472;2024-01-30T08:17:13;4.95;;;2.28;;
64212;SDS011;50532;52.058;4.472;2024-01-30T08:19:38;4.68;;;2.50;;
64212;SDS011;50532;52.058;4.472;2024-01-30T08:22:04;16.77;;;2.10;;
64212;SDS011;50532;52.058;4.472;2024-01-30T08:24:29;8.23;;;2.15;;
64212;SDS011;50532;52.058;4.472;2024-01-30T08:26:54;4.68;;;3.08;;
64212;SDS011;50532;52.058;4.472;2024-01-30T08:29:20;4.07;;;2.20;;
64212;SDS011;50532;52.058;4.472;2024-01-30T08:31:45;4.28;;;1.92;;
64212;SDS011;50532;52.058;4.472;2024-01-30T08:34:11;6.18;;;2.45;;
64212;SDS011;50532;52.058;4.472;2024-01-30T08:36:36;9.77;;;2.45;;
64212;SDS011;50532;52.058;4.472;2024-01-30T08:39:02;5.72;;;2.20;;
64212;SDS011;50532;52.058;4.472;2024-01-30T08:41:27;7.63;;;2.33;;
64212;SDS011;50532;52.058;4.472;2024-01-30T08:43:53;3.72;;;2.50;;
64212;SDS011;50532;52.058;4.472;2024-01-30T08:46:19;13.02;;;2.30;;
64212;SDS011;50532;52.058;4.472;2024-01-30T08:48:45;5.68;;;2.38;;
64212;SDS011;50532;52.058;4.472;2024-01-30T08:51:11;3.70;;;2.13;;
64212;SDS011;50532;52.058;4.472;2024-01-30T08:53:37;7.93;;;2.25;;
64212;SDS011;50532;52.058;4.472;2024-01-30T08:56:03;6.85;;;2.20;;
64212;SDS011;50532;52.058;4.472;2024-01-30T08:58:29;4.78;;;2.40;;
64212;SDS011;50532;52.058;4.472;2024-01-30T09:00:54;6.85;;;2.90;;
64212;SDS011;50532;52.058;4.472;2024-01-30T09:03:19;3.78;;;2.33;;
64212;SDS011;50532;52.058;4.472;2024-01-30T09:05:45;6.90;;;2.20;;
64212;SDS011;50532;52.058;4.472;2024-01-30T09:08:10;9.38;;;3.42;;
64212;SDS011;50532;52.058;4.472;2024-01-30T09:10:36;4.95;;;2.30;;
64212;SDS011;50532;52.058;4.472;2024-01-30T09:13:02;5.70;;;2.55;;
64212;SDS011;50532;52.058;4.472;2024-01-30T09:15:28;3.55;;;2.15;;
64212;SDS011;50532;52.058;4.472;2024-01-30T09:17:53;5.10;;;2.30;;
64212;SDS011;50532;52.058;4.472;2024-01-30T09:20:18;8.25;;;2.40;;
64212;SDS011;50532;52.058;4.472;2024-01-30T09:22:45;3.22;;;2.20;;
64212;SDS011;50532;52.058;4.472;2024-01-30T09:25:10;4.95;;;2.53;;
64212;SDS011;50532;52.058;4.472;2024-01-30T09:27:36;4.03;;;1.90;;
64212;SDS011;50532;52.058;4.472;2024-01-30T09:30:01;3.50;;;1.75;;
64212;SDS011;50532;52.058;4.472;2024-01-30T09:32:27;4.78;;;2.00;;
64212;SDS011;50532;52.058;4.472;2024-01-30T09:34:52;7.72;;;2.40;;
64212;SDS011;50532;52.058;4.472;2024-01-30T09:37:17;2.53;;;1.70;;
64212;SDS011;50532;52.058;4.472;2024-01-30T09:39:43;4.85;;;2.38;;
64212;SDS011;50532;52.058;4.472;2024-01-30T09:42:14;8.55;;;2.03;;
64212;SDS011;50532;52.058;4.472;2024-01-30T09:44:45;6.03;;;2.03;;
64212;SDS011;50532;52.058;4.472;2024-01-30T09:47:12;3.95;;;2.05;;
64212;SDS011;50532;52.058;4.472;2024-01-30T09:49:38;7.38;;;2.13;;
64212;SDS011;50532;52.058;4.472;2024-01-30T09:52:05;3.83;;;1.67;;
64212;SDS011;50532;52.058;4.472;2024-01-30T09:54:30;3.35;;;1.77;;
64212;SDS011;50532;52.058;4.472;2024-01-30T09:56:56;4.57;;;1.60;;
64212;SDS011;50532;52.058;4.472;2024-01-30T09:59:22;4.80;;;1.80;;
64212;SDS011;50532;52.058;4.472;2024-01-30T10:01:48;6.25;;;1.70;;
64212;SDS011;50532;52.058;4.472;2024-01-30T10:04:14;5.25;;;1.63;;
64212;SDS011;50532;52.058;4.472;2024-01-30T10:06:40;6.05;;;1.80;;
64212;SDS011;50532;52.058;4.472;2024-01-30T10:09:05;4.00;;;2.20;;
64212;SDS011;50532;52.058;4.472;2024-01-30T10:11:31;8.85;;;1.10;;
64212;SDS011;50532;52.058;4.472;2024-01-30T10:13:56;5.70;;;1.27;;
64212;SDS011;50532;52.058;4.472;2024-01-30T10:16:21;6.28;;;1.55;;
64212;SDS011;50532;52.058;4.472;2024-01-30T10:18:47;2.70;;;1.25;;
64212;SDS011;50532;52.058;4.472;2024-01-30T10:21:12;4.00;;;1.30;;
64212;SDS011;50532;52.058;4.472;2024-01-30T10:23:38;3.20;;;1.10;;
64212;SDS011;50532;52.058;4.472;2024-01-30T10:26:03;3.00;;;0.93;;
64212;SDS011;50532;52.058;4.472;2024-01-30T10:28:29;2.05;;;0.90;;
64212;SDS011;50532;52.058;4.472;2024-01-30T10:30:59;2.13;;;1.17;;
64212;SDS011;50532;52.058;4.472;2024-01-30T10:33:25;3.08;;;1.48;;
64212;SDS011;50532;52.058;4.472;2024-01-30T10:35:53;2.97;;;0.90;;
64212;SDS011;50532;52.058;4.472;2024-01-30T10:38:20;4.05;;;1.40;;
64212;SDS011;50532;52.058;4.472;2024-01-30T10:40:46;1.38;;;0.63;;
64212;SDS011;50532;52.058;4.472;2024-01-30T10:43:12;6.07;;;1.38;;
64212;SDS011;50532;52.058;4.472;2024-01-30T10:45:40;4.20;;;1.10;;
64212;SDS011;50532;52.058;4.472;2024-01-30T10:48:10;2.60;;;0.90;;
64212;SDS011;50532;52.058;4.472;2024-01-30T10:50:36;1.35;;;0.70;;
64212;SDS011;50532;52.058;4.472;2024-01-30T10:53:02;2.55;;;0.80;;
64212;SDS011;50532;52.058;4.472;2024-01-30T10:55:28;2.97;;;1.17;;
64212;SDS011;50532;52.058;4.472;2024-01-30T10:57:55;3.80;;;0.93;;
64212;SDS011;50532;52.058;4.472;2024-01-30T11:00:20;3.38;;;1.08;;
64212;SDS011;50532;52.058;4.472;2024-01-30T11:02:48;4.30;;;0.93;;
64212;SDS011;50532;52.058;4.472;2024-01-30T11:05:14;1.58;;;0.80;;
64212;SDS011;50532;52.058;4.472;2024-01-30T11:07:40;4.47;;;1.05;;
64212;SDS011;50532;52.058;4.472;2024-01-30T11:10:06;3.38;;;0.85;;
64212;SDS011;50532;52.058;4.472;2024-01-30T11:12:39;4.00;;;1.10;;
64212;SDS011;50532;52.058;4.472;2024-01-30T11:15:14;2.42;;;1.00;;
64212;SDS011;50532;52.058;4.472;2024-01-30T11:23:01;5.65;;;1.35;;
64212;SDS011;50532;52.058;4.472;2024-01-30T11:25:32;4.80;;;0.73;;
64212;SDS011;50532;52.058;4.472;2024-01-30T11:27:58;1.50;;;0.73;;
64212;SDS011;50532;52.058;4.472;2024-01-30T11:30:28;3.30;;;0.73;;
64212;SDS011;50532;52.058;4.472;2024-01-30T11:35:56;4.85;;;1.05;;
64212;SDS011;50532;52.058;4.472;2024-01-30T11:38:22;3.42;;;0.93;;
64212;SDS011;50532;52.058;4.472;2024-01-30T11:40:47;3.08;;;0.90;;
64212;SDS011;50532;52.058;4.472;2024-01-30T11:43:13;3.97;;;1.20;;
64212;SDS011;50532;52.058;4.472;2024-01-30T11:45:39;7.97;;;1.25;;
64212;SDS011;50532;52.058;4.472;2024-01-30T11:48:04;5.38;;;1.23;;
64212;SDS011;50532;52.058;4.472;2024-01-30T11:50:30;3.88;;;1.20;;
64212;SDS011;50532;52.058;4.472;2024-01-30T11:52:57;4.93;;;1.17;;
64212;SDS011;50532;52.058;4.472;2024-01-30T11:55:24;4.35;;;1.05;;
64212;SDS011;50532;52.058;4.472;2024-01-30T11:57:49;5.80;;;1.38;;
64212;SDS011;50532;52.058;4.472;2024-01-30T12:00:18;4.57;;;1.13;;
64212;SDS011;50532;52.058;4.472;2024-01-30T12:02:44;4.82;;;1.50;;
64212;SDS011;50532;52.058;4.472;2024-01-30T12:05:14;6.85;;;1.40;;
64212;SDS011;50532;52.058;4.472;2024-01-30T12:07:39;4.72;;;1.30;;
64212;SDS011;50532;52.058;4.472;2024-01-30T12:10:05;4.57;;;1.20;;
64212;SDS011;50532;52.058;4.472;2024-01-30T12:12:30;5.05;;;0.93;;
64212;SDS011;50532;52.058;4.472;2024-01-30T12:14:56;4.40;;;1.23;;
64212;SDS011;50532;52.058;4.472;2024-01-30T12:17:34;3.10;;;1.13;;
64212;SDS011;50532;52.058;4.472;2024-01-30T12:22:38;8.07;;;1.08;;
64212;SDS011;50532;52.058;4.472;2024-01-30T12:25:08;3.17;;;1.30;;
64212;SDS011;50532;52.058;4.472;2024-01-30T12:27:34;6.28;;;1.25;;
64212;SDS011;50532;52.058;4.472;2024-01-30T12:29:59;4.35;;;1.63;;
64212;SDS011;50532;52.058;4.472;2024-01-30T12:32:25;7.95;;;0.90;;
64212;SDS011;50532;52.058;4.472;2024-01-30T12:34:50;13.27;;;1.35;;
64212;SDS011;50532;52.058;4.472;2024-01-30T12:37:19;6.70;;;1.30;;
64212;SDS011;50532;52.058;4.472;2024-01-30T12:39:49;7.28;;;1.33;;
64212;SDS011;50532;52.058;4.472;2024-01-30T12:42:16;3.85;;;1.02;;
64212;SDS011;50532;52.058;4.472;2024-01-30T12:44:41;6.32;;;1.33;;
64212;SDS011;50532;52.058;4.472;2024-01-30T12:47:08;6.07;;;1.10;;
64212;SDS011;50532;52.058;4.472;2024-01-30T12:49:34;8.25;;;1.40;;
64212;SDS011;50532;52.058;4.472;2024-01-30T12:51:59;4.88;;;1.08;;
64212;SDS011;50532;52.058;4.472;2024-01-30T12:54:24;4.95;;;0.90;;
64212;SDS011;50532;52.058;4.472;2024-01-30T12:56:50;7.47;;;0.80;;
64212;SDS011;50532;52.058;4.472;2024-01-30T12:59:15;4.75;;;0.98;;
64212;SDS011;50532;52.058;4.472;2024-01-30T13:01:41;5.72;;;1.48;;
64212;SDS011;50532;52.058;4.472;2024-01-30T13:04:06;7.25;;;1.02;;
64212;SDS011;50532;52.058;4.472;2024-01-30T13:06:32;2.08;;;0.77;;
64212;SDS011;50532;52.058;4.472;2024-01-30T13:08:57;1.45;;;0.80;;
64212;SDS011;50532;52.058;4.472;2024-01-30T13:11:22;5.53;;;0.95;;
64212;SDS011;50532;52.058;4.472;2024-01-30T13:13:50;4.22;;;1.00;;
64212;SDS011;50532;52.058;4.472;2024-01-30T13:16:15;3.38;;;0.90;;
64212;SDS011;50532;52.058;4.472;2024-01-30T13:18:40;3.05;;;0.85;;
64212;SDS011;50532;52.058;4.472;2024-01-30T13:21:06;2.90;;;0.80;;
64212;SDS011;50532;52.058;4.472;2024-01-30T13:23:32;8.70;;;0.90;;
64212;SDS011;50532;52.058;4.472;2024-01-30T13:25:57;3.40;;;1.00;;
64212;SDS011;50532;52.058;4.472;2024-01-30T13:28:23;1.20;;;0.73;;
64212;SDS011;50532;52.058;4.472;2024-01-30T13:30:50;3.90;;;1.38;;
64212;SDS011;50532;52.058;4.472;2024-01-30T13:33:16;2.15;;;0.73;;
64212;SDS011;50532;52.058;4.472;2024-01-30T13:35:41;3.00;;;0.77;;
64212;SDS011;50532;52.058;4.472;2024-01-30T13:38:07;3.30;;;0.95;;
64212;SDS011;50532;52.058;4.472;2024-01-30T13:40:33;4.13;;;1.30;;
64212;SDS011;50532;52.058;4.472;2024-01-30T13:42:58;2.00;;;1.10;;
64212;SDS011;50532;52.058;4.472;2024-01-30T13:45:23;4.47;;;1.17;;
64212;SDS011;50532;52.058;4.472;2024-01-30T13:47:49;2.38;;;0.75;;
64212;SDS011;50532;52.058;4.472;2024-01-30T13:50:14;1.90;;;0.70;;
64212;SDS011;50532;52.058;4.472;2024-01-30T13:52:41;3.50;;;0.80;;
64212;SDS011;50532;52.058;4.472;2024-01-30T13:55:08;2.42;;;0.80;;
64212;SDS011;50532;52.058;4.472;2024-01-30T13:57:33;1.58;;;0.70;;
64212;SDS011;50532;52.058;4.472;2024-01-30T14:00:01;2.33;;;0.73;;
64212;SDS011;50532;52.058;4.472;2024-01-30T14:02:30;5.13;;;0.82;;
64212;SDS011;50532;52.058;4.472;2024-01-30T14:04:55;1.65;;;0.80;;
64212;SDS011;50532;52.058;4.472;2024-01-30T14:07:21;2.38;;;0.93;;
64212;SDS011;50532;52.058;4.472;2024-01-30T14:09:47;2.97;;;0.80;;
64212;SDS011;50532;52.058;4.472;2024-01-30T14:12:13;4.32;;;2.05;;
64212;SDS011;50532;52.058;4.472;2024-01-30T14:14:38;2.75;;;1.10;;
64212;SDS011;50532;52.058;4.472;2024-01-30T14:17:04;3.30;;;1.65;;
64212;SDS011;50532;52.058;4.472;2024-01-30T14:19:32;7.80;;;1.50;;
64212;SDS011;50532;52.058;4.472;2024-01-30T14:21:57;2.53;;;1.05;;
64212;SDS011;50532;52.058;4.472;2024-01-30T14:24:23;9.02;;;1.90;;
64212;SDS011;50532;52.058;4.472;2024-01-30T14:26:48;4.05;;;1.35;;
64212;SDS011;50532;52.058;4.472;2024-01-30T14:29:13;4.47;;;1.08;;
64212;SDS011;50532;52.058;4.472;2024-01-30T14:31:39;1.05;;;0.90;;
64212;SDS011;50532;52.058;4.472;2024-01-30T14:34:04;1.83;;;0.68;;
64212;SDS011;50532;52.058;4.472;2024-01-30T14:36:30;1.58;;;0.90;;
64212;SDS011;50532;52.058;4.472;2024-01-30T14:38:55;4.75;;;1.10;;
64212;SDS011;50532;52.058;4.472;2024-01-30T14:41:20;3.72;;;0.73;;
64212;SDS011;50532;52.058;4.472;2024-01-30T14:43:46;0.60;;;0.40;;
64212;SDS011;50532;52.058;4.472;2024-01-30T14:46:11;3.60;;;1.00;;
64212;SDS011;50532;52.058;4.472;2024-01-30T14:48:37;1.50;;;0.85;;
64212;SDS011;50532;52.058;4.472;2024-01-30T14:51:02;1.05;;;0.77;;